Wilson, OK (73463)

11:33 AM CDT on April 27, 2015 (GMT -0500)
Carter County Dist 2 | | Change Station
CLOSE
Current Station
Personal Weather Station
Location: Healdton, OK
Elevation: 933 ft
Nearby Weather Stations
Active Advisory: Flash Flood Watch

Elev 933 ft 34.25 °N, 97.50 °W | Updated 1 minute ago

Overcast
Overcast
57.8 °F
Feels Like 57.8 °F
N
8.0
Wind Variable Wind from SE
Gusts 14.0 mph

Today
High -- | Low -- °F
--% Chance of Precip.
Yesterday
High -- | Low -- °F
Precip. -- in
6:44 AM 8:10 PM
Waxing Gibbous, 66% visible
Pressure 29.80 in
Visibility 10.0 miles
Clouds Overcast 1500 ft
Dew Point 54 °F
Humidity 88%
Rainfall 0.00 in
Snow Depth Not available.
UV 3 out of 12
Pollen 8.70 out of 12
Air Quality Not available.
Flu Activity Local Activity
METAR K1F0 271615Z AUTO 12012G15KT 10SM OVC015 15/11 A2980 RMK AO2 LTG DSNT W AND NW

More Conditions Fewer Conditions

Pressure 29.80 in
Visibility 10.0 miles
Clouds Overcast 1500 ft
Dew Point 54 °F
Humidity 88%
Rainfall 0.00 in
Snow Depth Not available.
UV 3 out of 12
Pollen 8.70 out of 12
Air Quality Not available.
Flu Activity Local Activity
METAR K1F0 271615Z AUTO 12012G15KT 10SM OVC015 15/11 A2980 RMK AO2 LTG DSNT W AND NW

More Conditions Fewer Conditions

10-Day Weather Forecast

Almanac

Astronomy

Apr. 27, 2015 Rise Set
Actual Time
Civil Twilight
Nautical Twilight
Astronomical Twilight
Moon
Length of Visible Light
Length of Day
Tomorrow will be .
, % of the Moon is Illuminated

Today's Extremes

State Highs State Lows

Community

WunderPhotos

Upload Photos

1,817,336 photos uploaded!

WunderBlogs® & News

Nearby

Air Quality

  Air Quality AQ Index Pollutant
Not available.

Snow Depth

Station Depth Elevation

Earthquake Activity

City Distance Mag. Time & Date
Minimum magnitude displayed is 2.5.

Coastal Water Temperatures

Place Temperature

Stations

Nearby Weather Stations

Station Location Temp. Windchill Dew Point Humidity Wind Precip. Elev Updated Type
                   
Flash Flood Watch
Statement as of 3:10 AM CDT on April 27, 2015

... Flash Flood Watch remains in effect through this evening...

The Flash Flood Watch continues for

* portions of Oklahoma and northern Texas... including the
following areas... in Oklahoma... Beckham... Blaine... Caddo...
Canadian... Carter... Cleveland... Comanche... Cotton... Custer...
Dewey... Ellis... Garvin... Grady... Greer... Harmon... Harper...
Jackson... Kingfisher... Kiowa... Logan... major... McClain...
Murray... Oklahoma... Pontotoc... Pottawatomie... Roger Mills...
Seminole... Stephens... Tillman... Washita and Woodward. In
northern Texas... Foard... Hardeman... Wichita and Wilbarger.

* Through this evening

* rainfall amounts of 2 to 3 inches.

* Heavy rainfall will cause areal flooding... elevated creeks and
rivers.

Precautionary/preparedness actions...

Monitor weather forecasts and information. Make plans to get to
higher ground if flooding happens.